Who's Online

We have 9 guests online

Aviation WX

[source: ADDS]
METAR
KIAD 030552Z 00000KT 7SM CLR 21/19 A2995 RMK AO2 SLP136 T02060194 10267 20206 58005 =
TAF
KIAD 030534Z 0306/0412 VRB03KT P6SM FEW090 FM030900 VRB03KT 5SM BR SCT090 FM031200 32004KT P6SM SCT090 FM031600 32007KT P6SM SCT060 FM032200 34006KT P6SM BKN060 =
SR / SS: 00:23 / 13:18 UTC (Washington-Dulles 2015-09-03)

JoomlaWatch Agent

Home Products and Services

This section describes Multilink Systems products and services

 

 

Under construction Please Standby